Eastwood, Kentucky
Current Conditions -  °F | °C
As of 10:53 AM on Sunday 21 Dec 2014 (Local Time) from KLOU Reporting Station
Clear Clear  
Wind Chill: 27°   Ceiling: Unl
Heat Index: 34°   Visibility: 8mi
Dew Point: 26°   Wind: 9mph
Humidity: 73%   Direction: 90°E
Pressure: 30.3"   Gusts: NA
Location:  38.23°N, 85.46°W
Report Text: KLOU 211553Z 09008KT 8SM CLR 01/M03 A3030 RMK AO2 SLP267 T00111033
Loading
Personal Weather Stations






























Interactive Weather Map New forecast layout! Learn more

10-Day Weather Forecast

Advertisements
Track Severe Weather on mobile